createdAt,value
2022-12-25T00:01:22.904Z,101468.59
2022-12-25T00:03:50.422Z,101464.44
2022-12-25T00:06:17.524Z,101469.31
2022-12-25T00:08:44.476Z,101468.91
2022-12-25T00:11:13.850Z,101463.97
2022-12-25T00:13:40.993Z,101458.28
2022-12-25T00:16:14.674Z,101461.28
2022-12-25T00:18:41.089Z,101459.00
2022-12-25T00:21:07.624Z,101462.75
2022-12-25T00:23:35.713Z,101457.06
2022-12-25T00:26:12.429Z,101454.03
2022-12-25T00:28:39.185Z,101461.56
2022-12-25T00:31:14.825Z,101460.78
2022-12-25T00:33:43.655Z,101458.50
2022-12-25T00:36:11.630Z,101447.91
2022-12-25T00:38:39.519Z,101451.31
2022-12-25T00:41:08.027Z,101445.97
2022-12-25T00:43:34.582Z,101449.31
2022-12-25T00:46:03.839Z,101454.22
2022-12-25T00:48:31.517Z,101461.00
2022-12-25T00:51:01.457Z,101464.38
2022-12-25T00:53:29.004Z,101468.50
2022-12-25T00:55:57.990Z,101459.03
2022-12-25T00:58:26.120Z,101459.38
2022-12-25T01:00:52.780Z,101460.88
2022-12-25T01:03:19.245Z,101462.75
2022-12-25T01:06:12.906Z,101457.41
2022-12-25T01:08:59.697Z,101462.31
2022-12-25T01:11:26.425Z,101460.03
2022-12-25T01:13:52.961Z,101468.31
2022-12-25T01:16:19.477Z,101470.91
2022-12-25T01:18:46.599Z,101473.16
2022-12-25T01:21:18.117Z,101476.19
2022-12-25T01:23:44.995Z,101477.69
2022-12-25T01:26:13.246Z,101476.53
2022-12-25T01:28:40.636Z,101478.78
2022-12-25T01:31:11.637Z,101475.31
2022-12-25T01:33:39.836Z,101482.84
2022-12-25T01:36:17.099Z,101481.72
2022-12-25T01:38:44.063Z,101482.06
2022-12-25T01:41:11.861Z,101474.13
2022-12-25T01:44:06.204Z,101471.81
2022-12-25T01:46:33.416Z,101465.78
2022-12-25T01:49:08.376Z,101462.38
2022-12-25T01:51:49.220Z,101457.09
2022-12-25T01:54:20.336Z,101463.13
2022-12-25T01:56:49.777Z,101468.03
2022-12-25T01:59:19.443Z,101480.53
2022-12-25T02:01:46.800Z,101478.28
2022-12-25T02:04:25.156Z,101480.91
2022-12-25T02:06:53.258Z,101482.06
2022-12-25T02:09:19.762Z,101482.47
2022-12-25T02:11:59.109Z,101486.66
2022-12-25T02:14:29.821Z,101477.28
2022-12-25T02:17:27.588Z,101470.88
2022-12-25T02:20:15.722Z,101477.72
2022-12-25T02:23:07.295Z,101478.16
2022-12-25T02:25:47.121Z,101471.00
2022-12-25T02:28:33.557Z,101465.34
2022-12-25T02:31:13.118Z,101465.38
2022-12-25T02:34:14.403Z,101472.19
2022-12-25T02:36:52.591Z,101468.41
2022-12-25T02:39:47.047Z,101480.13
2022-12-25T02:42:21.130Z,101471.44
2022-12-25T02:45:17.195Z,101479.78
2022-12-25T02:48:15.690Z,101472.97
2022-12-25T02:51:00.861Z,101457.09
2022-12-25T02:53:47.093Z,101460.88
2022-12-25T02:56:32.438Z,101450.31
2022-12-25T02:59:20.150Z,101450.25
2022-12-25T03:02:05.398Z,101448.31
2022-12-25T03:04:52.122Z,101440.34
2022-12-25T03:07:22.053Z,101432.34
2022-12-25T03:10:17.957Z,101428.91
2022-12-25T03:12:58.971Z,101418.31
2022-12-25T03:15:44.321Z,101419.06
2022-12-25T03:18:15.808Z,101420.56
2022-12-25T03:21:00.583Z,101405.78
2022-12-25T03:23:49.868Z,101403.06
2022-12-25T03:26:35.957Z,101398.47
2022-12-25T03:29:02.771Z,101392.38
2022-12-25T03:31:51.063Z,101413.50
2022-12-25T03:34:59.821Z,101407.81
2022-12-25T03:37:44.403Z,101408.91
2022-12-25T03:40:53.086Z,101406.22
2022-12-25T03:43:48.168Z,101410.78
2022-12-25T03:46:36.989Z,101409.22
2022-12-25T03:49:32.554Z,101408.06
2022-12-25T03:52:20.456Z,101412.22
2022-12-25T03:55:09.767Z,101411.06
2022-12-25T03:57:55.047Z,101413.31
2022-12-25T04:00:40.598Z,101403.88
2022-12-25T04:03:25.587Z,101405.38
2022-12-25T04:06:10.930Z,101402.72
2022-12-25T04:09:06.465Z,101395.56
2022-12-25T04:11:52.624Z,101392.22
2022-12-25T04:14:39.974Z,101396.06
2022-12-25T04:17:25.305Z,101399.88
2022-12-25T04:20:10.249Z,101394.22
2022-12-25T04:22:55.378Z,101393.47
2022-12-25T04:25:40.584Z,101399.16
2022-12-25T04:28:25.501Z,101406.38
2022-12-25T04:31:18.233Z,101411.31
2022-12-25T04:34:03.588Z,101412.84
2022-12-25T04:36:30.055Z,101414.00
2022-12-25T04:38:56.541Z,101405.38
2022-12-25T04:41:22.987Z,101397.09
2022-12-25T04:43:49.400Z,101399.38
2022-12-25T04:46:15.843Z,101411.88
2022-12-25T04:48:42.345Z,101409.28
2022-12-25T04:51:17.594Z,101406.63
2022-12-25T04:53:44.986Z,101403.63
2022-12-25T04:56:11.653Z,101399.47
2022-12-25T04:58:38.534Z,101405.91
2022-12-25T05:01:05.802Z,101400.63
2022-12-25T05:03:32.824Z,101391.94
2022-12-25T05:05:59.881Z,101374.94
2022-12-25T05:08:27.997Z,101378.34
2022-12-25T05:10:54.467Z,101384.78
2022-12-25T05:13:20.934Z,101393.13
2022-12-25T05:15:47.947Z,101383.69
2022-12-25T05:18:14.593Z,101382.59
2022-12-25T05:20:41.056Z,101367.09
2022-12-25T05:23:10.697Z,101361.41
2022-12-25T05:25:39.790Z,101357.25
2022-12-25T05:28:07.240Z,101355.75
2022-12-25T05:30:35.074Z,101355.00
2022-12-25T05:33:01.925Z,101353.13
2022-12-25T05:35:28.410Z,101342.91
2022-12-25T05:37:54.901Z,101344.06
2022-12-25T05:40:21.430Z,101344.41
2022-12-25T05:42:47.853Z,101331.19
2022-12-25T05:45:14.427Z,101336.47
2022-12-25T05:47:40.890Z,101341.78
2022-12-25T05:50:08.211Z,101337.63
2022-12-25T05:52:34.902Z,101342.91
2022-12-25T05:55:01.452Z,101345.97
2022-12-25T05:57:29.354Z,101344.81
2022-12-25T05:59:56.486Z,101350.88
2022-12-25T06:02:23.641Z,101358.41
2022-12-25T06:04:50.381Z,101345.16
2022-12-25T06:07:16.901Z,101344.03
2022-12-25T06:09:43.424Z,101339.09
2022-12-25T06:12:09.842Z,101339.09
2022-12-25T06:14:38.742Z,101325.44
2022-12-25T06:17:05.316Z,101317.50
2022-12-25T06:19:32.119Z,101320.91
2022-12-25T06:21:58.671Z,101313.72
2022-12-25T06:24:25.314Z,101318.59
2022-12-25T06:26:51.983Z,101322.00
2022-12-25T06:29:18.614Z,101334.44
2022-12-25T06:31:45.308Z,101332.88
2022-12-25T06:34:11.883Z,101327.94
2022-12-25T06:36:38.469Z,101322.25
2022-12-25T06:39:05.009Z,101325.25
2022-12-25T06:41:31.478Z,101324.84
2022-12-25T06:44:01.355Z,101305.16
2022-12-25T06:46:29.648Z,101297.97
2022-12-25T06:48:57.600Z,101312.31
2022-12-25T06:51:26.666Z,101311.88
2022-12-25T06:53:54.100Z,101310.72
2022-12-25T06:56:24.199Z,101308.44
2022-12-25T06:58:58.886Z,101300.09
2022-12-25T07:01:30.207Z,101301.59
2022-12-25T07:03:59.954Z,101289.84
2022-12-25T07:06:26.759Z,101287.94
2022-12-25T07:08:53.382Z,101283.00
2022-12-25T07:11:20.298Z,101287.88
2022-12-25T07:13:46.763Z,101297.31
2022-12-25T07:16:13.721Z,101295.44
2022-12-25T07:18:41.156Z,101296.19
2022-12-25T07:21:19.270Z,101294.63
2022-12-25T07:23:47.627Z,101311.25
2022-12-25T07:26:15.750Z,101308.22
2022-12-25T07:28:42.227Z,101310.88
2022-12-25T07:31:14.265Z,101308.97
2022-12-25T07:33:41.795Z,101308.56
2022-12-25T07:36:10.234Z,101313.47
2022-12-25T07:38:40.322Z,101308.91
2022-12-25T07:41:10.679Z,101299.81
2022-12-25T07:43:37.582Z,101305.09
2022-12-25T07:46:04.919Z,101311.91
2022-12-25T07:48:31.685Z,101321.34
2022-12-25T07:51:04.030Z,101326.66
2022-12-25T07:53:30.743Z,101335.34
2022-12-25T07:56:02.806Z,101331.53
2022-12-25T07:58:30.204Z,101321.69
2022-12-25T08:01:03.216Z,101324.34
2022-12-25T08:03:30.180Z,101322.44
2022-12-25T08:06:01.654Z,101335.28
2022-12-25T08:08:28.428Z,101330.00
2022-12-25T08:10:54.980Z,101331.16
2022-12-25T08:13:21.409Z,101339.44
2022-12-25T08:15:48.763Z,101342.84
2022-12-25T08:18:15.408Z,101348.88
2022-12-25T08:20:41.933Z,101347.72
2022-12-25T08:23:08.426Z,101362.47
2022-12-25T08:25:34.943Z,101356.78
2022-12-25T08:28:01.582Z,101354.13
2022-12-25T08:30:28.692Z,101350.31
2022-12-25T08:32:55.731Z,101351.06
2022-12-25T08:35:22.327Z,101353.31
2022-12-25T08:37:48.821Z,101340.47
2022-12-25T08:40:15.418Z,101345.78
2022-12-25T08:42:41.970Z,101344.22
2022-12-25T08:45:09.162Z,101337.44
2022-12-25T08:47:35.803Z,101324.94
2022-12-25T08:50:02.298Z,101321.84
2022-12-25T08:52:29.077Z,101311.25
2022-12-25T08:54:56.276Z,101308.94
2022-12-25T08:57:22.757Z,101319.13
2022-12-25T08:59:49.189Z,101327.44
2022-12-25T09:02:17.293Z,101320.97
2022-12-25T09:04:47.039Z,101309.22
2022-12-25T09:07:13.834Z,101319.44
2022-12-25T09:09:40.374Z,101317.53
2022-12-25T09:12:07.005Z,101314.47
2022-12-25T09:14:33.548Z,101309.50
2022-12-25T09:16:59.971Z,101319.72
2022-12-25T09:19:26.549Z,101327.25
2022-12-25T09:21:53.799Z,101340.84
2022-12-25T09:24:20.853Z,101330.25
2022-12-25T09:26:47.358Z,101326.03
2022-12-25T09:29:14.727Z,101332.84
2022-12-25T09:31:42.108Z,101343.44
2022-12-25T09:34:11.471Z,101337.00
2022-12-25T09:36:41.950Z,101350.59
2022-12-25T09:39:08.452Z,101352.50
2022-12-25T09:42:01.984Z,101353.25
2022-12-25T09:44:32.205Z,101340.75
2022-12-25T09:47:06.343Z,101327.47
2022-12-25T09:49:44.811Z,101330.47
2022-12-25T09:52:22.469Z,101327.41
2022-12-25T09:55:03.351Z,101320.56
2022-12-25T09:57:29.841Z,101331.50
2022-12-25T09:59:56.620Z,101329.59
2022-12-25T10:02:33.934Z,101310.63
2022-12-25T10:05:19.569Z,101298.88
2022-12-25T10:08:14.181Z,101294.00
2022-12-25T10:10:49.956Z,101305.69
2022-12-25T10:13:26.473Z,101316.28
2022-12-25T10:16:28.718Z,101304.94
2022-12-25T10:19:08.060Z,101300.38
2022-12-25T10:21:34.662Z,101295.06
2022-12-25T10:24:28.301Z,101293.19
2022-12-25T10:26:56.382Z,101296.13
2022-12-25T10:29:22.835Z,101290.84
2022-12-25T10:31:52.835Z,101296.47
2022-12-25T10:34:19.303Z,101284.72
2022-12-25T10:36:46.336Z,101285.06
2022-12-25T10:39:18.364Z,101275.22
2022-12-25T10:42:13.639Z,101271.00
2022-12-25T10:44:40.069Z,101286.09
2022-12-25T10:47:06.660Z,101270.50
2022-12-25T10:49:37.775Z,101267.44
2022-12-25T10:52:19.889Z,101271.25
2022-12-25T10:54:46.467Z,101256.50
2022-12-25T10:57:16.929Z,101251.19
2022-12-25T10:59:45.652Z,101239.84
2022-12-25T11:02:27.684Z,101234.13
2022-12-25T11:05:10.927Z,101229.56
2022-12-25T11:07:50.745Z,101226.84
2022-12-25T11:10:25.223Z,101217.66
2022-12-25T11:12:53.014Z,101221.06
2022-12-25T11:15:42.278Z,101212.38
2022-12-25T11:18:20.957Z,101208.56
2022-12-25T11:20:59.151Z,101201.34
2022-12-25T11:23:28.085Z,101201.69
2022-12-25T11:26:04.093Z,101191.75
2022-12-25T11:28:33.124Z,101191.00
2022-12-25T11:31:05.452Z,101198.16
2022-12-25T11:33:52.781Z,101185.97
2022-12-25T11:36:31.186Z,101170.75
2022-12-25T11:39:14.182Z,101163.53
2022-12-25T11:41:41.527Z,101163.09
2022-12-25T11:44:22.741Z,101144.03
2022-12-25T11:46:52.082Z,101143.53
2022-12-25T11:49:21.313Z,101144.59
2022-12-25T11:51:51.942Z,101145.69
2022-12-25T11:54:33.760Z,101142.22
2022-12-25T11:57:04.451Z,101147.09
2022-12-25T11:59:38.266Z,101151.25
2022-12-25T12:02:42.993Z,101155.47
2022-12-25T12:05:21.287Z,101155.88
2022-12-25T12:07:59.849Z,101152.91
2022-12-25T12:11:15.692Z,101154.72
2022-12-25T12:13:54.281Z,101160.03
2022-12-25T12:16:20.836Z,101157.31
2022-12-25T12:18:50.533Z,101144.38
2022-12-25T12:21:30.404Z,101135.97
2022-12-25T12:24:09.849Z,101139.38
2022-12-25T12:26:40.782Z,101129.94
2022-12-25T12:29:21.754Z,101121.56
2022-12-25T12:31:50.386Z,101121.56
2022-12-25T12:34:37.965Z,101116.56
2022-12-25T12:37:22.897Z,101120.38
2022-12-25T12:39:53.839Z,101116.25
2022-12-25T12:42:25.920Z,101098.81
2022-12-25T12:44:55.806Z,101098.09
2022-12-25T12:47:44.431Z,101096.59
2022-12-25T12:50:29.539Z,101115.91
2022-12-25T12:52:56.832Z,101109.13
2022-12-25T12:55:31.764Z,101109.13
2022-12-25T12:58:00.423Z,101114.84
2022-12-25T13:00:36.408Z,101110.28
2022-12-25T13:03:10.088Z,101111.84
2022-12-25T13:05:54.445Z,101097.50
2022-12-25T13:08:49.737Z,101092.94
2022-12-25T13:11:24.652Z,101084.66
2022-12-25T13:13:53.789Z,101072.53
2022-12-25T13:16:26.964Z,101071.38
2022-12-25T13:18:56.141Z,101071.38
2022-12-25T13:21:28.631Z,101063.00
2022-12-25T13:24:03.884Z,101062.25
2022-12-25T13:26:30.853Z,101066.50
2022-12-25T13:28:57.404Z,101065.75
2022-12-25T13:31:26.687Z,101057.78
2022-12-25T13:34:06.769Z,101060.03
2022-12-25T13:36:38.415Z,101052.06
2022-12-25T13:39:08.494Z,101050.91
2022-12-25T13:42:01.445Z,101049.41
2022-12-25T13:44:31.035Z,101044.09
2022-12-25T13:47:08.688Z,101039.53
2022-12-25T13:49:36.293Z,101039.53
2022-12-25T13:52:18.560Z,101044.84
2022-12-25T13:55:04.691Z,101055.78
2022-12-25T13:57:35.388Z,101039.88
2022-12-25T14:00:04.230Z,101031.59
2022-12-25T14:02:36.535Z,101039.97
2022-12-25T14:05:24.135Z,101042.59
2022-12-25T14:07:55.351Z,101034.66
2022-12-25T14:10:24.373Z,101037.31
2022-12-25T14:12:53.530Z,101035.41
2022-12-25T14:15:22.281Z,101032.00
2022-12-25T14:17:50.687Z,101043.78
2022-12-25T14:20:47.441Z,101046.00
2022-12-25T14:23:16.221Z,101042.59
2022-12-25T14:25:45.278Z,101048.34
2022-12-25T14:28:26.986Z,101050.56
2022-12-25T14:30:54.414Z,101044.53
2022-12-25T14:33:24.108Z,101031.25
2022-12-25T14:35:51.368Z,101042.28
2022-12-25T14:38:35.273Z,101039.63
2022-12-25T14:41:05.693Z,101027.84
2022-12-25T14:43:34.456Z,101017.97
2022-12-25T14:46:03.804Z,101011.50
2022-12-25T14:48:32.759Z,101012.69
2022-12-25T14:51:02.154Z,101013.41
2022-12-25T14:53:35.976Z,101003.56
2022-12-25T14:56:03.301Z,101024.78
2022-12-25T14:58:32.750Z,101020.22
2022-12-25T15:01:01.697Z,101017.91
2022-12-25T15:03:32.278Z,101011.84
2022-12-25T15:06:19.447Z,101022.88
2022-12-25T15:09:00.389Z,101019.81
2022-12-25T15:11:27.484Z,101025.53
2022-12-25T15:13:53.959Z,101017.66
2022-12-25T15:16:33.922Z,101014.25
2022-12-25T15:19:01.859Z,101027.09
2022-12-25T15:21:30.267Z,101036.13
2022-12-25T15:23:58.256Z,101033.16
2022-12-25T15:26:26.537Z,101024.44
2022-12-25T15:28:53.080Z,101027.09
2022-12-25T15:31:29.875Z,101021.81
2022-12-25T15:33:58.891Z,101022.97
2022-12-25T15:36:25.734Z,101025.63
2022-12-25T15:38:52.339Z,101029.75
2022-12-25T15:41:55.137Z,101025.94
2022-12-25T15:44:22.355Z,101013.84
2022-12-25T15:46:49.625Z,101013.50
2022-12-25T15:49:16.979Z,101011.28
2022-12-25T15:51:44.510Z,101010.13
2022-12-25T15:54:11.032Z,101011.59
2022-12-25T15:56:44.532Z,101008.19
2022-12-25T15:59:15.974Z,100994.19
2022-12-25T16:02:04.463Z,100991.53
2022-12-25T16:04:31.308Z,100986.22
2022-12-25T16:06:59.300Z,100980.59
2022-12-25T16:09:27.487Z,100982.50
2022-12-25T16:11:53.899Z,101004.47
2022-12-25T16:14:21.686Z,100995.03
2022-12-25T16:16:48.487Z,101009.78
2022-12-25T16:19:15.051Z,101001.81
2022-12-25T16:21:45.093Z,101003.31
2022-12-25T16:24:13.560Z,101005.56
2022-12-25T16:26:40.105Z,101001.41
2022-12-25T16:29:07.726Z,101005.97
2022-12-25T16:31:35.693Z,100998.44
2022-12-25T16:34:02.598Z,100995.34
2022-12-25T16:36:29.248Z,100988.56
2022-12-25T16:38:55.694Z,100984.84
2022-12-25T16:41:22.307Z,100978.78
2022-12-25T16:43:49.081Z,100981.09
2022-12-25T16:46:19.029Z,100961.47
2022-12-25T16:48:45.620Z,100956.91
2022-12-25T16:51:14.680Z,100964.84
2022-12-25T16:53:41.242Z,100977.38
2022-12-25T16:56:10.107Z,100972.81
2022-12-25T16:58:37.391Z,100973.16
2022-12-25T17:01:08.823Z,100979.19
2022-12-25T17:03:36.191Z,100968.16
2022-12-25T17:06:03.593Z,100973.16
2022-12-25T17:08:30.202Z,100969.00
2022-12-25T17:10:56.881Z,100966.03
2022-12-25T17:13:23.569Z,100965.72
2022-12-25T17:15:50.746Z,100965.72
2022-12-25T17:18:21.671Z,100962.63
2022-12-25T17:20:52.844Z,100964.22
2022-12-25T17:23:20.725Z,100968.38
2022-12-25T17:25:47.242Z,100972.94
2022-12-25T17:28:13.748Z,100976.00
2022-12-25T17:30:40.254Z,100973.34
2022-12-25T17:33:06.682Z,100976.75
2022-12-25T17:35:36.309Z,100972.59
2022-12-25T17:38:03.740Z,100969.22
2022-12-25T17:40:30.943Z,100966.56
2022-12-25T17:42:57.486Z,100961.66
2022-12-25T17:45:23.993Z,100966.22
2022-12-25T17:47:54.922Z,100974.50
2022-12-25T17:50:22.174Z,100979.06
2022-12-25T17:52:48.697Z,100979.06
2022-12-25T17:55:15.118Z,100978.66
2022-12-25T17:57:41.582Z,100976.00
2022-12-25T18:00:08.393Z,100976.41
2022-12-25T18:02:35.519Z,100974.19
2022-12-25T18:05:02.137Z,100970.44
2022-12-25T18:07:28.605Z,100960.97
2022-12-25T18:09:55.093Z,100952.69
2022-12-25T18:12:21.637Z,100949.72
2022-12-25T18:14:48.296Z,100954.69
2022-12-25T18:17:14.800Z,100947.47
2022-12-25T18:19:41.277Z,100952.78
2022-12-25T18:22:07.721Z,100949.38
2022-12-25T18:24:34.186Z,100942.59
2022-12-25T18:27:00.618Z,100941.50
2022-12-25T18:29:27.149Z,100947.56
2022-12-25T18:31:55.402Z,100950.63
2022-12-25T18:34:22.077Z,100962.00
2022-12-25T18:36:48.689Z,100964.63
2022-12-25T18:39:17.389Z,100958.19
2022-12-25T18:42:04.384Z,100957.44
2022-12-25T18:44:30.873Z,100968.78
2022-12-25T18:46:57.305Z,100969.94
2022-12-25T18:49:23.789Z,100969.19
2022-12-25T18:51:50.523Z,100973.00
2022-12-25T18:54:17.009Z,100972.69
2022-12-25T18:56:43.583Z,100965.47
2022-12-25T18:59:10.079Z,100963.16
2022-12-25T19:01:36.826Z,100954.88
2022-12-25T19:04:05.625Z,100957.09
2022-12-25T19:06:33.306Z,100952.13
2022-12-25T19:09:00.078Z,100951.38
2022-12-25T19:11:26.876Z,100955.53
2022-12-25T19:13:53.345Z,100954.78
2022-12-25T19:16:19.844Z,100952.13
2022-12-25T19:18:46.460Z,100948.31
2022-12-25T19:21:13.041Z,100939.28
2022-12-25T19:23:39.609Z,100947.66
2022-12-25T19:26:07.493Z,100946.16
2022-12-25T19:28:34.821Z,100943.94
2022-12-25T19:31:04.277Z,100941.28
2022-12-25T19:33:31.611Z,100945.09
2022-12-25T19:36:02.522Z,100940.53
2022-12-25T19:38:29.266Z,100951.47
2022-12-25T19:41:02.041Z,100954.88
2022-12-25T19:43:30.279Z,100961.31
2022-12-25T19:45:59.197Z,100969.38
2022-12-25T19:48:25.891Z,100967.47
2022-12-25T19:50:52.577Z,100968.22
2022-12-25T19:53:21.415Z,100976.16
2022-12-25T19:55:47.895Z,100975.00
2022-12-25T19:58:14.919Z,100975.84
2022-12-25T20:00:41.781Z,100976.91
2022-12-25T20:03:09.178Z,100968.22
2022-12-25T20:05:36.175Z,100972.34
2022-12-25T20:08:02.838Z,100972.34
2022-12-25T20:10:29.342Z,100966.31
2022-12-25T20:12:55.809Z,100981.06
2022-12-25T20:15:22.317Z,100982.53
2022-12-25T20:17:48.811Z,100969.69
2022-12-25T20:20:15.337Z,100969.28
2022-12-25T20:22:41.794Z,100978.31
2022-12-25T20:25:09.697Z,100974.16
2022-12-25T20:27:36.203Z,100984.78
2022-12-25T20:30:02.932Z,100978.72
2022-12-25T20:32:29.678Z,100973.00
2022-12-25T20:34:56.330Z,100966.53
2022-12-25T20:37:22.807Z,100977.16
2022-12-25T20:39:49.586Z,100975.66
2022-12-25T20:42:16.128Z,100975.66
2022-12-25T20:44:42.537Z,100968.03
2022-12-25T20:47:09.113Z,100972.19
2022-12-25T20:49:35.721Z,100975.56
2022-12-25T20:52:05.512Z,100983.53
2022-12-25T20:54:32.731Z,100980.13
2022-12-25T20:56:59.289Z,100982.78
2022-12-25T20:59:25.977Z,100976.75
2022-12-25T21:01:54.229Z,100979.72
2022-12-25T21:04:21.346Z,100987.25
2022-12-25T21:06:47.996Z,100987.25
2022-12-25T21:09:14.804Z,100993.72
2022-12-25T21:11:41.290Z,100991.81
2022-12-25T21:14:07.777Z,100983.44
2022-12-25T21:16:35.398Z,100990.66
2022-12-25T21:19:02.104Z,100994.47
2022-12-25T21:21:28.609Z,101000.94
2022-12-25T21:23:57.030Z,100999.03
2022-12-25T21:26:26.739Z,100994.47
2022-12-25T21:29:00.223Z,100984.28
2022-12-25T21:31:27.923Z,100991.06
2022-12-25T21:33:55.695Z,101000.94
2022-12-25T21:36:24.383Z,101013.03
2022-12-25T21:38:59.168Z,101023.66
2022-12-25T21:41:27.470Z,101014.19
2022-12-25T21:43:54.947Z,101030.09
2022-12-25T21:46:22.133Z,101029.38
2022-12-25T21:48:49.436Z,101027.03
2022-12-25T21:51:40.508Z,101028.94
2022-12-25T21:54:07.799Z,101022.16
2022-12-25T21:56:42.994Z,101024.81
2022-12-25T21:59:19.481Z,101014.94
2022-12-25T22:01:46.334Z,101019.09
2022-12-25T22:04:15.132Z,101027.78
2022-12-25T22:07:00.878Z,101026.63
2022-12-25T22:09:27.525Z,101033.84
2022-12-25T22:12:12.509Z,101027.78
2022-12-25T22:14:56.182Z,101028.53
2022-12-25T22:17:48.329Z,101031.94
2022-12-25T22:20:18.637Z,101029.28
2022-12-25T22:22:45.401Z,101028.13
2022-12-25T22:25:12.567Z,101034.16
2022-12-25T22:27:41.494Z,101028.88
2022-12-25T22:30:17.141Z,101039.81
2022-12-25T22:32:44.084Z,101041.72
2022-12-25T22:35:12.357Z,101033.75
2022-12-25T22:37:40.553Z,101017.84
2022-12-25T22:40:09.885Z,101017.44
2022-12-25T22:42:36.790Z,101021.56
2022-12-25T22:45:04.377Z,101009.47
2022-12-25T22:47:30.831Z,101007.19
2022-12-25T22:49:57.374Z,101019.28
2022-12-25T22:52:23.942Z,101020.03
2022-12-25T22:54:50.376Z,100998.81
2022-12-25T22:57:16.916Z,100991.59
2022-12-25T22:59:43.693Z,101007.09
2022-12-25T23:02:10.234Z,101012.41
2022-12-25T23:04:36.875Z,101020.34
2022-12-25T23:07:03.990Z,101032.88
2022-12-25T23:09:30.514Z,101019.94
2022-12-25T23:11:58.648Z,101013.88
2022-12-25T23:14:38.911Z,101027.56
2022-12-25T23:17:30.931Z,101014.31
2022-12-25T23:20:17.747Z,101007.09
2022-12-25T23:23:03.509Z,101004.09
2022-12-25T23:25:48.828Z,100988.94
2022-12-25T23:28:35.391Z,100983.63
2022-12-25T23:31:01.959Z,100993.50
2022-12-25T23:33:28.597Z,100998.38
2022-12-25T23:35:55.074Z,101005.59
2022-12-25T23:38:21.539Z,101010.16
2022-12-25T23:40:47.989Z,101024.91
2022-12-25T23:43:14.741Z,101018.88
2022-12-25T23:45:41.180Z,101024.91
2022-12-25T23:48:08.560Z,101033.63
2022-12-25T23:50:37.563Z,101024.91
2022-12-25T23:53:04.128Z,101018.44
2022-12-25T23:55:30.659Z,101019.59
2022-12-25T23:57:57.087Z,101032.88
